Time;durP1;ratioP1;P1;durP2;ratioP2;P2;SDS_P1;SDS_P2;PMS_P1;PMS_P2;Temp;Humidity;BMP_temperature;BMP_pressure;BME280_temperature;BME280_humidity;BME280_pressure;Samples;Min_cycle;Max_cycle;Signal;HPM_P1;HPM_P2
2022/11/10 00:01:52;;;;;;;17.23;10.63;;;;;;;7.71;74.19;100050.88;4957785;28;20029;-91
2022/11/10 00:04:17;;;;;;;16.63;11.13;;;;;;;7.66;74.22;100046.22;4948533;28;20031;-92
2022/11/10 00:06:45;;;;;;;22.30;11.38;;;;;;;7.54;74.47;100034.66;4976147;28;20036;-93
2022/11/10 00:09:11;;;;;;;17.02;10.60;;;;;;;7.57;74.07;100051.06;4992038;28;20025;-92
2022/11/10 00:11:36;;;;;;;18.52;10.50;;;;;;;7.35;74.74;100034.75;4976275;28;20082;-93
2022/11/10 00:17:01;;;;;;;18.05;10.23;;;;;;;7.48;74.86;100057.84;5000019;28;20068;-93
2022/11/10 00:19:35;;;;;;;19.50;10.48;;;;;;;7.52;74.31;100059.00;4968631;28;20389;-93
2022/11/10 00:22:01;;;;;;;18.13;9.50;;;;;;;7.54;74.27;100054.22;4967518;28;20018;-93
2022/11/10 00:24:27;;;;;;;17.70;10.55;;;;;;;7.54;73.70;100050.75;4988632;28;20091;-93
2022/11/10 00:26:52;;;;;;;20.95;11.18;;;;;;;7.40;74.02;100048.25;4969727;28;20026;-93
2022/11/10 00:29:18;;;;;;;17.23;10.18;;;;;;;7.14;73.94;100029.94;4952934;28;20340;-92
2022/11/10 00:31:44;;;;;;;18.55;10.55;;;;;;;7.20;73.77;100045.06;4957748;28;20037;-92
2022/11/10 00:34:14;;;;;;;15.82;9.30;;;;;;;7.35;73.67;100037.44;4988686;28;20018;-92
2022/11/10 00:36:40;;;;;;;17.48;10.35;;;;;;;7.25;74.01;100035.31;4987768;28;20404;-93
2022/11/10 00:39:05;;;;;;;20.27;11.52;;;;;;;7.20;74.57;100045.91;4978372;28;20021;-93
2022/11/10 00:41:31;;;;;;;17.52;11.00;;;;;;;7.13;74.23;100030.97;4995095;28;20400;-92
2022/11/10 00:43:56;;;;;;;20.77;10.57;;;;;;;7.34;73.71;100038.47;4992676;28;20042;-92
2022/11/10 00:46:22;;;;;;;16.67;9.77;;;;;;;7.38;73.49;100022.75;4963575;28;20037;-93
2022/11/10 00:48:47;;;;;;;19.85;11.15;;;;;;;7.32;73.58;100019.13;4990685;28;20021;-93
2022/11/10 00:51:24;;;;;;;20.73;12.55;;;;;;;7.25;74.06;100037.19;4972064;28;20416;-92
2022/11/10 00:53:49;;;;;;;23.20;12.40;;;;;;;7.21;74.11;100022.63;4967118;28;20022;-92
2022/11/10 00:56:15;;;;;;;18.67;11.27;;;;;;;7.26;74.12;100041.47;4978057;28;20033;-93
2022/11/10 00:58:40;;;;;;;19.10;12.23;;;;;;;7.14;74.40;100027.25;4984476;28;20030;-91
2022/11/10 01:01:06;;;;;;;22.30;13.05;;;;;;;7.10;74.76;100029.59;4961184;28;20017;-93
2022/11/10 01:03:32;;;;;;;23.45;12.60;;;;;;;7.14;74.42;100028.09;4967448;28;20033;-92
2022/11/10 01:05:57;;;;;;;24.98;12.20;;;;;;;6.96;74.74;100017.44;4961230;28;20026;-93
2022/11/10 01:08:23;;;;;;;20.42;12.60;;;;;;;7.07;74.93;100030.84;4975807;28;20512;-92
2022/11/10 01:10:48;;;;;;;23.95;12.50;;;;;;;7.04;74.85;100017.91;4949514;28;20030;-93
2022/11/10 01:13:14;;;;;;;23.35;13.15;;;;;;;6.98;75.14;100021.50;4988973;28;20397;-93
2022/11/10 01:15:40;;;;;;;23.90;12.07;;;;;;;6.92;74.42;100014.41;4985221;28;20057;-92
2022/11/10 01:18:05;;;;;;;22.42;12.13;;;;;;;6.95;75.12;100030.03;4959698;28;20022;-92
2022/11/10 01:20:32;;;;;;;18.23;10.73;;;;;;;7.08;74.11;100020.97;4969427;28;20026;-91
2022/11/10 01:22:58;;;;;;;20.75;11.65;;;;;;;7.14;74.03;100043.31;4945308;28;20026;-93
2022/11/10 01:25:23;;;;;;;22.10;11.32;;;;;;;6.84;74.07;100020.06;4957641;28;20030;-92
2022/11/10 01:27:50;;;;;;;22.75;12.05;;;;;;;6.76;74.16;100020.38;4976892;28;20045;-93
2022/11/10 01:30:15;;;;;;;25.02;11.93;;;;;;;6.61;74.37;100021.63;4960966;28;20034;-93
2022/11/10 01:32:41;;;;;;;20.52;11.05;;;;;;;6.60;74.92;100029.84;4973778;28;20121;-92
2022/11/10 01:35:06;;;;;;;21.77;11.77;;;;;;;6.44;74.96;100021.41;4979502;28;20033;-92
2022/11/10 01:37:32;;;;;;;18.98;11.73;;;;;;;6.37;74.80;100018.03;4968157;28;20030;-93
2022/11/10 01:39:57;;;;;;;20.77;10.65;;;;;;;6.39;75.25;100023.97;4990591;28;20026;-93
2022/11/10 01:42:24;;;;;;;23.45;11.15;;;;;;;6.40;75.20;100041.63;4984056;28;20045;-93
2022/11/10 01:45:21;;;;;;;22.83;12.15;;;;;;;6.34;75.22;100041.72;4970353;28;20043;-92
2022/11/10 01:47:50;;;;;;;22.95;12.85;;;;;;;6.17;75.73;100028.13;4999741;28;20108;-93
2022/11/10 01:50:16;;;;;;;28.92;14.25;;;;;;;6.22;75.95;100042.44;4971615;28;20112;-92
2022/11/10 01:52:43;;;;;;;26.65;15.25;;;;;;;6.11;76.42;100021.00;4967570;28;20029;-92
2022/11/10 01:55:08;;;;;;;28.83;14.55;;;;;;;6.18;76.03;100027.91;4962942;28;20028;-93
2022/11/10 01:57:34;;;;;;;28.27;13.93;;;;;;;6.21;75.23;100023.97;4979589;28;20021;-92
2022/11/10 01:59:59;;;;;;;28.25;14.95;;;;;;;6.30;75.66;100036.00;4975130;28;20054;-92
2022/11/10 02:02:31;;;;;;;27.30;15.40;;;;;;;6.19;75.97;100024.19;4952153;28;20030;-92
2022/11/10 02:04:59;;;;;;;27.63;14.13;;;;;;;6.19;76.12;100026.88;4990301;28;20503;-94
2022/11/10 02:07:27;;;;;;;30.65;15.15;;;;;;;6.21;75.41;100023.97;4981431;28;20026;-93
2022/11/10 02:09:53;;;;;;;26.77;15.07;;;;;;;6.20;75.38;100023.13;4980171;28;20125;-93
2022/11/10 02:12:35;;;;;;;30.42;15.65;;;;;;;6.30;75.58;100036.00;4968361;28;20053;-93
2022/11/10 02:15:14;;;;;;;23.67;14.45;;;;;;;6.32;75.58;100033.91;4993120;28;20096;-93
2022/11/10 02:17:40;;;;;;;26.00;14.60;;;;;;;6.25;75.54;100022.50;4969988;28;20029;-92
2022/11/10 02:20:08;;;;;;;28.48;14.10;;;;;;;6.32;74.64;100033.09;4968000;28;20136;-92
2022/11/10 02:22:34;;;;;;;26.02;14.43;;;;;;;6.23;74.57;100027.25;4975878;28;20026;-93
2022/11/10 02:25:00;;;;;;;22.85;13.35;;;;;;;6.16;74.65;100013.94;4960721;28;20025;-93
2022/11/10 02:27:25;;;;;;;20.42;11.63;;;;;;;6.18;74.50;100027.09;4955841;28;20499;-92
2022/11/10 02:29:51;;;;;;;24.88;12.32;;;;;;;6.13;74.43;100030.44;4976685;28;20081;-93
2022/11/10 02:32:16;;;;;;;22.88;11.88;;;;;;;6.10;74.46;100030.91;4973656;28;20420;-93
2022/11/10 02:34:42;;;;;;;23.92;13.00;;;;;;;6.09;74.50;100033.78;4964105;28;20485;-93
2022/11/10 02:37:10;;;;;;;18.33;11.32;;;;;;;5.97;75.09;100025.69;4951288;28;20478;-92
2022/11/10 02:39:36;;;;;;;23.92;12.88;;;;;;;5.84;75.57;100019.41;4984241;28;20026;-92
2022/11/10 02:42:02;;;;;;;22.77;13.63;;;;;;;5.80;75.63;100026.22;4954776;28;20033;-92
2022/11/10 02:44:27;;;;;;;24.98;13.93;;;;;;;5.79;75.85;100029.09;4954623;28;20054;-92
2022/11/10 02:46:53;;;;;;;22.83;13.07;;;;;;;5.82;75.65;100026.81;4970748;28;20080;-93
2022/11/10 02:49:18;;;;;;;20.48;12.48;;;;;;;5.82;75.42;100037.50;4962458;28;20116;-93
2022/11/10 02:51:44;;;;;;;24.13;12.05;;;;;;;5.98;75.16;100041.50;4974687;28;20033;-91
2022/11/10 02:54:09;;;;;;;31.35;14.10;;;;;;;5.91;75.12;100031.88;4988132;28;20072;-91
2022/11/10 02:56:35;;;;;;;24.10;13.32;;;;;;;6.00;74.61;100028.72;4989025;28;20031;-93
2022/11/10 02:59:01;;;;;;;21.60;12.07;;;;;;;6.18;74.32;100032.44;4969126;28;20060;-92
2022/11/10 03:01:26;;;;;;;20.45;12.60;;;;;;;6.29;73.79;100045.06;4982980;28;20539;-91
2022/11/10 03:03:52;;;;;;;25.35;12.77;;;;;;;6.32;73.73;100068.69;4969910;28;20029;-92
2022/11/10 03:06:17;;;;;;;26.77;13.20;;;;;;;6.10;74.34;100046.94;4984146;28;20520;-92
2022/11/10 03:08:43;;;;;;;27.45;13.43;;;;;;;6.14;74.50;100048.09;4965916;28;20037;-92
2022/11/10 03:11:08;;;;;;;24.35;14.02;;;;;;;6.02;74.43;100042.69;4985699;28;20026;-92
2022/11/10 03:13:34;;;;;;;29.17;13.30;;;;;;;6.04;74.93;100058.50;4994356;28;20084;-92
2022/11/10 03:15:59;;;;;;;27.65;13.80;;;;;;;5.98;75.05;100046.84;4955539;28;20033;-92
2022/11/10 03:18:24;;;;;;;25.98;14.95;;;;;;;5.88;74.59;100046.50;4977456;28;20033;-92
2022/11/10 03:20:50;;;;;;;27.40;13.65;;;;;;;5.89;75.26;100064.16;4957599;28;20385;-91
2022/11/10 03:23:18;;;;;;;31.60;14.75;;;;;;;5.76;75.23;100062.44;4966763;28;20021;-91
2022/11/10 03:25:44;;;;;;;28.90;13.00;;;;;;;5.63;74.72;100044.69;4958956;28;20037;-92
2022/11/10 03:28:10;;;;;;;24.50;12.80;;;;;;;5.70;74.74;100065.16;4979887;28;20026;-93
2022/11/10 03:30:36;;;;;;;28.00;14.10;;;;;;;5.59;75.02;100056.03;4975464;28;20121;-92
2022/11/10 03:33:01;;;;;;;23.65;13.05;;;;;;;5.59;75.76;100066.72;4975600;28;20080;-92
2022/11/10 03:35:27;;;;;;;23.63;13.23;;;;;;;5.53;75.18;100065.72;4964876;28;20023;-92
2022/11/10 03:37:52;;;;;;;25.65;14.68;;;;;;;5.55;75.71;100086.88;4972830;28;20022;-93
2022/11/10 03:40:18;;;;;;;28.80;13.98;;;;;;;5.43;76.31;100066.19;4993445;28;20018;-92
2022/11/10 03:42:47;;;;;;;31.02;14.25;;;;;;;5.50;75.85;100071.50;4980272;28;20035;-92
2022/11/10 03:45:13;;;;;;;24.02;13.48;;;;;;;5.62;75.59;100075.13;4976492;28;20084;-91
2022/11/10 03:47:38;;;;;;;26.77;12.82;;;;;;;5.67;75.25;100079.78;4947647;28;20031;-92
2022/11/10 03:50:04;;;;;;;24.52;14.77;;;;;;;5.61;75.56;100076.13;4955310;28;20547;-92
2022/11/10 03:52:30;;;;;;;25.52;14.45;;;;;;;5.67;75.69;100082.47;4952833;28;20026;-92
2022/11/10 03:54:55;;;;;;;24.00;12.90;;;;;;;5.67;75.18;100066.44;4954448;28;20172;-92
2022/11/10 03:57:21;;;;;;;22.75;13.70;;;;;;;5.62;74.94;100068.94;4954010;28;20448;-92
2022/11/10 03:59:46;;;;;;;24.60;13.52;;;;;;;5.46;75.42;100070.31;4975405;28;20061;-92
2022/11/10 04:02:12;;;;;;;26.52;13.43;;;;;;;5.42;75.55;100077.13;4961709;28;20399;-92
2022/11/10 04:10:06;;;;;;;22.60;13.07;;;;;;;5.25;75.61;100066.16;4989300;28;20041;-92
2022/11/10 04:18:20;;;;;;;21.33;12.85;;;;;;;5.28;75.51;100068.38;4976390;28;20095;-92
2022/11/10 04:21:00;;;;;;;21.67;12.90;;;;;;;5.38;75.11;100087.41;4990131;28;20124;-92
2022/11/10 04:23:33;;;;;;;22.58;11.85;;;;;;;5.19;75.45;100065.16;4975952;28;20032;-92
2022/11/10 04:29:07;;;;;;;23.45;13.30;;;;;;;5.22;75.08;100078.06;5006339;28;20115;-91
2022/11/10 04:31:34;;;;;;;20.90;13.20;;;;;;;5.32;74.79;100076.78;4961491;28;20042;-92
2022/11/10 04:33:59;;;;;;;23.35;13.23;;;;;;;5.19;74.48;100067.84;4985867;28;20064;-92
2022/11/10 04:36:30;;;;;;;29.00;13.18;;;;;;;5.24;74.50;100084.00;4975963;28;20027;-92
2022/11/10 04:38:56;;;;;;;25.67;13.15;;;;;;;5.16;74.69;100072.78;4975770;28;20173;-94
2022/11/10 04:41:22;;;;;;;26.40;13.85;;;;;;;5.21;75.18;100086.31;4976377;28;20034;-92
2022/11/10 04:43:47;;;;;;;20.17;13.03;;;;;;;5.15;75.09;100069.28;4916718;28;1233635;-92
2022/11/10 04:46:20;;;;;;;28.88;13.68;;;;;;;5.38;75.05;100103.44;4957849;28;20068;-90
2022/11/10 04:48:46;;;;;;;25.48;13.77;;;;;;;5.24;74.57;100091.19;4968607;28;20029;-92
2022/11/10 04:51:12;;;;;;;28.38;13.70;;;;;;;5.15;74.83;100063.16;4954877;28;20029;-94
2022/11/10 04:53:37;;;;;;;24.90;13.60;;;;;;;5.24;74.69;100083.19;4958035;28;20108;-92
2022/11/10 04:56:03;;;;;;;23.67;12.98;;;;;;;5.19;75.37;100085.72;4964080;28;20026;-93
2022/11/10 04:58:31;;;;;;;29.10;14.32;;;;;;;5.20;74.55;100090.81;4963013;28;20137;-92
2022/11/10 05:00:57;;;;;;;26.75;14.45;;;;;;;5.14;75.18;100089.00;4959595;28;20034;-93
2022/11/10 05:03:23;;;;;;;40.22;15.98;;;;;;;5.14;74.77;100085.50;4972521;28;20033;-92
2022/11/10 05:05:48;;;;;;;31.42;14.85;;;;;;;5.25;74.19;100082.97;4967683;28;20026;-93
2022/11/10 05:08:14;;;;;;;21.83;13.13;;;;;;;5.34;73.38;100096.06;4957019;28;20038;-92
2022/11/10 05:10:39;;;;;;;26.33;13.85;;;;;;;5.25;73.32;100082.97;4980177;28;20034;-92
2022/11/10 05:13:05;;;;;;;24.38;14.20;;;;;;;5.25;73.12;100080.31;4964578;28;20040;-92
2022/11/10 05:15:31;;;;;;;25.13;13.63;;;;;;;5.35;73.11;100095.84;4967497;28;20559;-93
2022/11/10 05:17:57;;;;;;;25.25;13.85;;;;;;;5.38;72.79;100095.41;4959441;28;20048;-94
2022/11/10 05:20:23;;;;;;;24.95;14.25;;;;;;;5.48;73.06;100124.31;4953562;28;20033;-92
2022/11/10 05:25:34;;;;;;;27.27;14.60;;;;;;;5.35;73.96;100111.03;4983847;28;20153;-91
2022/11/10 05:28:00;;;;;;;32.40;16.25;;;;;;;5.28;73.44;100113.78;4967179;28;20096;-91
2022/11/10 05:30:26;;;;;;;32.83;16.65;;;;;;;5.29;73.67;100118.06;4966308;28;20037;-92
2022/11/10 05:32:51;;;;;;;26.13;14.07;;;;;;;5.23;74.24;100110.94;4967200;28;20037;-92
2022/11/10 05:35:16;;;;;;;30.05;15.52;;;;;;;5.15;74.44;100105.84;4966861;28;20022;-93
2022/11/10 05:37:42;;;;;;;23.58;14.95;;;;;;;5.06;74.71;100107.94;4966915;28;20026;-94
2022/11/10 05:40:14;;;;;;;33.20;15.90;;;;;;;5.18;74.53;100138.25;4967350;28;20038;-93
2022/11/10 05:42:47;;;;;;;30.77;15.15;;;;;;;4.95;75.35;100104.09;4978909;28;20034;-92
2022/11/10 05:45:13;;;;;;;28.70;16.17;;;;;;;5.11;75.05;100136.69;4958298;28;20050;-95
2022/11/10 05:47:39;;;;;;;31.20;15.00;;;;;;;5.22;74.53;100127.97;4992778;28;20050;-95
2022/11/10 05:50:05;;;;;;;30.60;15.60;;;;;;;5.38;74.47;100126.66;4980477;28;20115;-95
2022/11/10 05:52:31;;;;;;;31.33;16.23;;;;;;;5.38;73.96;100119.44;4989236;28;20030;-95
2022/11/10 05:54:56;;;;;;;33.67;16.17;;;;;;;5.43;74.09;100124.94;4968081;28;20062;-96
2022/11/10 05:57:22;;;;;;;27.60;16.20;;;;;;;5.53;73.92;100129.81;4984157;28;20029;-92
2022/11/10 05:59:47;;;;;;;30.17;13.85;;;;;;;5.69;73.87;100141.84;4975246;28;20050;-91
2022/11/10 06:02:13;;;;;;;33.70;16.30;;;;;;;5.79;73.31;100146.69;5011117;28;20049;-92
2022/11/10 06:04:39;;;;;;;25.80;13.77;;;;;;;5.81;73.77;100148.13;4998845;28;20072;-93
2022/11/10 06:07:06;;;;;;;33.47;15.95;;;;;;;6.01;72.75;100157.84;4969030;28;20127;-95
2022/11/10 06:09:32;;;;;;;31.80;15.43;;;;;;;5.91;73.70;100139.59;4980202;28;20427;-92
2022/11/10 06:11:58;;;;;;;34.60;16.95;;;;;;;5.94;73.35;100154.41;4975018;28;20120;-93
2022/11/10 06:14:23;;;;;;;30.30;15.48;;;;;;;5.85;73.39;100159.16;4970966;28;20117;-91
2022/11/10 06:16:49;;;;;;;25.60;15.40;;;;;;;5.80;72.78;100135.78;4960999;28;20029;-91
2022/11/10 06:19:14;;;;;;;28.92;14.98;;;;;;;6.14;71.95;100171.09;4977484;28;20631;-95
2022/11/10 06:21:43;;;;;;;25.30;13.23;;;;;;;6.16;71.64;100150.28;4982329;28;20115;-95
2022/11/10 06:24:12;;;;;;;24.90;14.00;;;;;;;6.19;71.87;100152.53;4974578;28;20070;-95
2022/11/10 06:26:37;;;;;;;25.83;14.95;;;;;;;6.23;71.43;100143.03;4971551;28;20036;-95
2022/11/10 06:29:03;;;;;;;26.90;15.05;;;;;;;6.17;71.40;100145.78;4985254;28;20026;-92
2022/11/10 06:31:28;;;;;;;28.90;15.32;;;;;;;6.29;71.74;100170.78;4969536;28;20030;-91
2022/11/10 06:33:54;;;;;;;25.02;13.75;;;;;;;6.39;72.61;100180.94;4986458;28;20022;-93
2022/11/10 06:36:20;;;;;;;32.83;14.98;;;;;;;6.44;72.59;100173.09;4976916;28;20034;-92
2022/11/10 06:38:46;;;;;;;23.45;13.73;;;;;;;6.47;72.07;100177.97;4971091;28;20034;-91
2022/11/10 06:41:11;;;;;;;24.02;14.45;;;;;;;6.53;72.32;100173.59;4946123;28;20532;-92
2022/11/10 06:43:39;;;;;;;31.52;16.05;;;;;;;6.53;71.88;100170.94;4946536;28;20039;-91
2022/11/10 06:46:05;;;;;;;27.40;16.00;;;;;;;6.61;71.59;100166.09;4945624;28;20037;-92
2022/11/10 06:48:30;;;;;;;36.28;16.00;;;;;;;6.78;71.33;100173.53;4947836;28;20023;-95
2022/11/10 06:50:59;;;;;;;29.17;16.08;;;;;;;6.82;71.53;100172.88;4968222;28;20035;-92
2022/11/10 06:53:25;;;;;;;31.50;16.13;;;;;;;7.01;70.84;100189.72;4969157;28;20033;-94
2022/11/10 06:55:50;;;;;;;31.20;17.17;;;;;;;7.05;70.64;100179.38;4967768;28;20018;-91
2022/11/10 06:58:17;;;;;;;26.67;17.00;;;;;;;7.03;70.08;100160.88;4980280;28;20034;-92
2022/11/10 07:00:42;;;;;;;29.17;17.75;;;;;;;7.21;69.64;100186.00;4976915;28;20049;-92
2022/11/10 07:03:10;;;;;;;32.13;18.08;;;;;;;7.21;69.89;100170.75;4976682;28;20022;-91
2022/11/10 07:05:36;;;;;;;35.63;16.80;;;;;;;7.26;69.94;100167.38;4961722;28;20513;-91
2022/11/10 07:08:14;;;;;;;28.55;16.83;;;;;;;7.57;69.69;100195.78;4979880;28;20088;-94
2022/11/10 07:10:40;;;;;;;34.65;17.15;;;;;;;7.49;69.61;100166.63;4974720;28;20030;-89
2022/11/10 07:13:11;;;;;;;39.45;19.20;;;;;;;7.54;68.89;100156.06;4985057;28;20026;-91
2022/11/10 07:15:36;;;;;;;31.35;18.85;;;;;;;7.72;69.37;100176.63;4964208;28;20091;-92
2022/11/10 07:18:03;;;;;;;28.70;17.23;;;;;;;7.93;69.43;100199.41;4985012;28;20026;-92
2022/11/10 07:20:41;;;;;;;34.30;19.02;;;;;;;7.97;68.98;100181.81;4993935;28;20022;-90
2022/11/10 07:23:06;;;;;;;38.45;19.27;;;;;;;8.15;68.70;100186.22;4981715;28;20018;-92
2022/11/10 07:25:38;;;;;;;38.28;17.52;;;;;;;8.39;68.57;100195.13;4985203;28;20552;-96
2022/11/10 07:28:06;;;;;;;28.58;16.80;;;;;;;8.46;67.46;100162.81;4954904;28;20037;-91
2022/11/10 07:30:58;;;;;;;31.45;16.48;;;;;;;8.60;67.79;100172.25;4993697;28;20033;-96
2022/11/10 07:33:24;;;;;;;28.95;16.23;;;;;;;8.77;66.91;100169.66;4972833;28;20033;-95
2022/11/10 07:36:27;;;;;;;34.75;16.67;;;;;;;8.88;67.29;100173.34;4986113;28;20034;-94
2022/11/10 07:38:53;;;;;;;29.58;15.80;;;;;;;9.05;67.29;100179.63;4994168;28;20094;-94
2022/11/10 07:41:22;;;;;;;26.77;15.45;;;;;;;9.15;66.94;100167.44;4950381;28;20138;-95
2022/11/10 07:43:48;;;;;;;27.25;13.40;;;;;;;9.35;66.38;100183.97;4963112;28;20038;-93
2022/11/10 07:46:23;;;;;;;28.08;12.65;;;;;;;9.43;66.01;100180.88;4948185;28;20129;-94
2022/11/10 07:48:49;;;;;;;33.45;20.38;;;;;;;9.51;66.24;100191.25;4965050;28;20235;-95
2022/11/10 07:51:15;;;;;;;52.85;30.02;;;;;;;9.38;66.54;100170.06;4948944;28;20041;-94
2022/11/10 07:53:40;;;;;;;35.70;21.77;;;;;;;9.64;65.55;100184.75;4949019;28;20028;-92
2022/11/10 07:56:15;;;;;;;23.45;14.05;;;;;;;9.76;65.03;100171.25;4966578;28;20022;-94
2022/11/10 07:58:46;;;;;;;23.38;14.13;;;;;;;9.89;64.00;100162.84;4964299;28;20555;-95
2022/11/10 08:01:11;;;;;;;26.10;14.23;;;;;;;9.94;64.98;100180.97;4980381;28;20066;-96
2022/11/10 08:03:37;;;;;;;22.10;14.18;;;;;;;10.06;64.04;100160.16;4976981;28;20086;-95
2022/11/10 08:16:22;;;;;;;22.73;14.73;;;;;;;10.65;62.70;100170.47;4993929;28;20054;-93
2022/11/10 08:18:47;;;;;;;35.60;16.25;;;;;;;10.73;62.01;100171.91;4946338;28;20030;-93
2022/11/10 08:21:13;;;;;;;25.17;14.95;;;;;;;10.79;61.98;100173.63;4945585;28;20034;-94
2022/11/10 08:23:42;;;;;;;29.40;14.98;;;;;;;11.05;62.17;100192.78;4945203;28;20059;-94
2022/11/10 08:26:16;;;;;;;26.73;17.13;;;;;;;11.06;61.93;100181.75;4978353;28;20030;-95
2022/11/10 08:28:43;;;;;;;22.40;15.77;;;;;;;11.04;62.04;100165.03;4964299;28;20041;-95
2022/11/10 08:31:09;;;;;;;58.58;19.38;;;;;;;11.17;61.68;100166.50;4944934;28;20026;-93
2022/11/10 08:33:37;;;;;;;30.25;16.52;;;;;;;11.21;61.76;100167.63;4960932;28;20034;-93
2022/11/10 08:36:02;;;;;;;33.55;16.67;;;;;;;11.45;61.20;100178.13;4949687;28;20093;-95
2022/11/10 08:38:28;;;;;;;25.67;15.95;;;;;;;11.45;60.90;100178.13;4948162;28;20439;-94
2022/11/10 08:40:57;;;;;;;26.58;16.95;;;;;;;11.65;61.13;100194.50;4965243;28;20489;-94
2022/11/10 08:43:23;;;;;;;31.65;17.08;;;;;;;11.70;60.25;100191.03;4965814;28;20112;-93
2022/11/10 08:45:49;;;;;;;52.55;20.67;;;;;;;11.72;60.08;100178.94;4961916;28;20542;-95
2022/11/10 08:48:17;;;;;;;40.17;21.15;;;;;;;11.70;60.69;100175.69;4960753;28;20472;-92
2022/11/10 08:50:43;;;;;;;37.42;19.70;;;;;;;11.84;59.98;100178.75;4973479;28;20042;-94
2022/11/10 08:53:13;;;;;;;31.92;17.77;;;;;;;12.00;59.75;100192.44;4945487;28;20036;-94
2022/11/10 08:55:39;;;;;;;38.78;19.45;;;;;;;12.06;59.79;100169.81;4957402;28;20045;-94
2022/11/10 08:58:41;;;;;;;35.55;20.42;;;;;;;12.24;59.68;100174.81;4960939;28;20034;-95
2022/11/10 09:07:19;;;;;;;28.20;17.23;;;;;;;12.59;58.31;100173.38;4958438;29;20038;-94
2022/11/10 09:09:54;;;;;;;26.45;17.88;;;;;;;12.71;57.90;100173.97;4914323;29;20035;-96
2022/11/10 09:12:19;;;;;;;27.92;17.15;;;;;;;12.80;57.57;100166.16;4912800;29;20043;-92
2022/11/10 09:14:45;;;;;;;34.97;16.80;;;;;;;12.88;57.63;100172.97;4911362;29;20086;-94
2022/11/10 09:17:17;;;;;;;27.20;16.05;;;;;;;13.09;57.46;100188.22;4908058;29;20034;-92
2022/11/10 09:19:43;;;;;;;27.77;16.98;;;;;;;13.08;57.45;100169.53;4941145;29;20097;-95
2022/11/10 09:22:09;;;;;;;32.15;17.48;;;;;;;13.13;57.49;100164.94;4915349;29;20035;-93
2022/11/10 09:24:35;;;;;;;22.20;15.32;;;;;;;13.26;57.07;100163.66;4926323;29;20051;-93
2022/11/10 09:27:03;;;;;;;28.80;16.08;;;;;;;13.35;56.68;100163.97;4944738;29;20031;-93
2022/11/10 09:29:29;;;;;;;32.30;17.55;;;;;;;13.45;55.71;100161.28;4925443;29;20474;-94
2022/11/10 09:31:55;;;;;;;28.88;17.00;;;;;;;13.65;55.50;100173.19;4916209;29;20034;-95
2022/11/10 09:34:27;;;;;;;26.63;16.02;;;;;;;13.73;54.86;100169.97;4944053;28;20472;-95
2022/11/10 09:36:55;;;;;;;25.70;17.52;;;;;;;13.79;55.66;100177.00;4947098;28;20062;-94
2022/11/10 09:39:20;;;;;;;28.98;16.77;;;;;;;13.88;54.81;100169.16;4955181;28;20408;-95
2022/11/10 09:41:48;;;;;;;26.40;16.98;;;;;;;13.92;54.61;100165.66;4946315;28;20038;-92
2022/11/10 09:44:32;;;;;;;26.73;15.10;;;;;;;13.83;54.99;100144.81;4978113;28;20030;-93
2022/11/10 09:46:58;;;;;;;19.88;12.75;;;;;;;14.01;54.02;100140.72;4962491;28;20037;-92
2022/11/10 09:49:32;;;;;;;17.92;10.73;;;;;;;14.21;53.57;100156.94;4959285;28;20049;-92
2022/11/10 09:52:00;;;;;;;12.98;8.98;;;;;;;14.24;52.83;100147.47;4953334;28;20042;-95
2022/11/10 09:54:39;;;;;;;17.95;10.30;;;;;;;14.34;53.23;100159.09;4963811;28;20026;-94
2022/11/10 09:57:06;;;;;;;19.48;12.02;;;;;;;14.32;52.67;100134.19;4962726;28;20030;-94
2022/11/10 09:59:33;;;;;;;13.23;9.23;;;;;;;14.38;52.00;100134.16;4962254;28;20065;-93
2022/11/10 10:02:12;;;;;;;19.10;9.05;;;;;;;14.57;52.09;100154.22;4961705;28;20045;-94
2022/11/10 10:04:56;;;;;;;15.63;9.45;;;;;;;14.63;51.63;100146.84;4979342;28;20046;-92
2022/11/10 10:07:52;;;;;;;14.02;9.32;;;;;;;14.53;52.48;100131.44;4997348;28;20022;-92
2022/11/10 10:10:43;;;;;;;14.52;9.25;;;;;;;14.51;52.03;100125.47;4967005;28;20030;-95
2022/11/10 10:13:30;;;;;;;16.47;10.40;;;;;;;14.81;51.83;100140.03;4964643;28;20064;-94
2022/11/10 10:16:13;;;;;;;18.20;9.50;;;;;;;14.84;52.01;100137.56;4995117;28;20050;-94
2022/11/10 10:18:57;;;;;;;17.58;10.68;;;;;;;14.95;52.37;100138.34;4993357;28;20065;-92
2022/11/10 10:24:55;;;;;;;20.63;10.98;;;;;;;15.28;51.45;100117.00;4996799;28;20069;-92
2022/11/10 10:28:06;;;;;;;17.45;10.32;;;;;;;15.50;51.03;100133.66;4966251;28;20049;-94
2022/11/10 10:30:32;;;;;;;19.48;11.00;;;;;;;15.38;51.07;100111.50;4999992;28;20038;-96
2022/11/10 10:33:02;;;;;;;19.92;12.57;;;;;;;15.37;51.03;100107.16;4963037;28;20117;-92
2022/11/10 10:35:27;;;;;;;20.33;10.45;;;;;;;15.43;50.64;100107.94;4953679;28;20390;-94
2022/11/10 10:37:59;;;;;;;20.88;11.68;;;;;;;15.57;50.10;100119.78;4944571;28;20045;-92
2022/11/10 10:40:24;;;;;;;17.50;10.32;;;;;;;15.65;50.13;100118.38;4994941;28;20085;-93
2022/11/10 10:42:50;;;;;;;15.52;10.27;;;;;;;15.70;50.21;100113.69;4962786;28;20034;-91
2022/11/10 10:45:21;;;;;;;16.55;11.13;;;;;;;15.83;50.14;100125.81;4977521;28;20034;-91
2022/11/10 10:47:52;;;;;;;22.13;10.85;;;;;;;15.82;50.14;100112.53;4977195;28;20109;-93
2022/11/10 10:50:30;;;;;;;15.83;10.20;;;;;;;15.83;49.44;100122.31;4957913;28;20408;-92
2022/11/10 10:53:06;;;;;;;17.88;10.38;;;;;;;15.87;49.67;100123.34;4977707;28;20129;-93
2022/11/10 10:55:51;;;;;;;15.30;9.88;;;;;;;15.85;49.44;100117.41;4965611;28;20026;-92
2022/11/10 10:58:20;;;;;;;17.45;10.10;;;;;;;15.74;49.20;100100.38;4979217;28;20461;-88
2022/11/10 11:01:03;;;;;;;15.10;9.88;;;;;;;15.74;49.40;100095.75;4973440;28;20645;-92
2022/11/10 11:03:48;;;;;;;16.95;10.90;;;;;;;15.75;49.63;100085.72;4974996;28;20026;-92
2022/11/10 11:06:20;;;;;;;15.35;9.85;;;;;;;15.84;49.03;100086.72;4980220;28;20061;-95
2022/11/10 11:09:08;;;;;;;19.33;10.18;;;;;;;16.12;48.72;100111.44;4962335;28;20136;-92
2022/11/10 11:11:35;;;;;;;16.90;10.20;;;;;;;16.02;48.35;100089.81;4977740;28;20034;-93
2022/11/10 11:14:15;;;;;;;14.70;10.10;;;;;;;16.15;49.02;100100.81;4955717;28;20026;-94
2022/11/10 11:17:03;;;;;;;17.30;11.07;;;;;;;16.25;49.00;100108.06;4940725;28;20381;-92
2022/11/10 11:19:33;;;;;;;21.73;11.38;;;;;;;16.19;49.26;100097.53;4942163;28;20034;-93
2022/11/10 11:22:36;;;;;;;23.08;12.02;;;;;;;16.24;48.93;100098.28;4962249;28;20030;-95
2022/11/10 11:25:27;;;;;;;17.20;10.55;;;;;;;16.33;48.95;100112.03;4962816;28;20042;-93
2022/11/10 11:28:02;;;;;;;15.93;11.15;;;;;;;16.34;49.02;100111.75;4969374;28;20018;-93
2022/11/10 11:30:36;;;;;;;21.55;10.80;;;;;;;16.16;49.09;100077.16;4973610;28;20121;-94
2022/11/10 11:33:20;;;;;;;18.65;12.43;;;;;;;16.26;49.01;100103.41;4971758;28;20112;-96
2022/11/10 11:38:59;;;;;;;19.10;12.10;;;;;;;16.23;49.31;100093.94;4983469;28;20125;-95
2022/11/10 11:41:43;;;;;;;18.30;11.32;;;;;;;16.25;49.23;100102.63;4979020;28;20064;-96
2022/11/10 11:44:40;;;;;;;20.08;11.75;;;;;;;16.30;49.19;100097.13;4972224;28;20034;-94
2022/11/10 11:54:27;;;;;;;17.70;10.88;;;;;;;16.53;48.61;100102.84;4994440;28;20041;-95
2022/11/10 11:57:07;;;;;;;17.27;10.65;;;;;;;16.46;48.87;100091.53;4973426;28;20466;-96
2022/11/10 11:59:53;;;;;;;20.38;10.40;;;;;;;16.60;48.43;100103.31;4957900;28;20035;-95
2022/11/10 12:15:57;;;;;;;16.50;10.98;;;;;;;16.59;47.69;100098.16;4979436;28;20045;-93
2022/11/10 12:18:33;;;;;;;16.42;10.98;;;;;;;16.48;47.35;100086.59;4977197;28;20113;-93
2022/11/10 12:21:25;;;;;;;22.75;11.75;;;;;;;16.61;47.10;100093.25;4927969;28;20030;-95
2022/11/10 12:24:16;;;;;;;18.83;9.95;;;;;;;16.77;47.16;100102.84;4946129;28;20026;-95
2022/11/10 12:26:50;;;;;;;14.30;9.32;;;;;;;16.71;46.26;100107.50;4978969;28;20486;-96
2022/11/10 12:29:52;;;;;;;21.45;10.30;;;;;;;16.66;46.36;100102.13;4960265;28;20041;-94